Time;durP1;ratioP1;P1;durP2;ratioP2;P2;SDS_P1;SDS_P2;PMS_P1;PMS_P2;Temp;Humidity;BMP_temperature;BMP_pressure;BME280_temperature;BME280_humidity;BME280_pressure;Samples;Min_cycle;Max_cycle;Signal;HPM_P1;HPM_P2
2024/01/28 00:00:33;;;;;;;6.85;3.47;;;4.60;69.00;;;;;;5015453;28;20057;-88
2024/01/28 00:02:59;;;;;;;8.32;4.10;;;4.60;68.90;;;;;;5016072;28;20048;-84
2024/01/28 00:05:24;;;;;;;8.98;3.65;;;4.60;68.80;;;;;;5017059;28;20092;-86
2024/01/28 00:07:50;;;;;;;7.03;3.97;;;4.70;68.30;;;;;;4999101;28;20053;-87
2024/01/28 00:10:16;;;;;;;10.13;3.20;;;4.70;68.10;;;;;;4998035;28;20044;-87
2024/01/28 00:12:42;;;;;;;9.05;3.80;;;4.80;67.60;;;;;;5014743;28;20022;-85
2024/01/28 00:15:10;;;;;;;9.13;3.25;;;4.80;67.30;;;;;;5014225;28;20029;-87
2024/01/28 00:17:35;;;;;;;6.55;3.05;;;4.80;67.20;;;;;;5016622;28;20021;-86
2024/01/28 00:20:01;;;;;;;5.88;3.10;;;4.80;66.80;;;;;;5016720;28;20018;-85
2024/01/28 00:22:26;;;;;;;11.68;3.35;;;4.80;66.40;;;;;;4998702;28;20053;-85
2024/01/28 00:24:52;;;;;;;7.55;3.05;;;4.90;66.20;;;;;;5014628;28;20029;-86
2024/01/28 00:27:17;;;;;;;6.07;2.83;;;4.80;65.90;;;;;;5014393;28;20080;-85
2024/01/28 00:29:43;;;;;;;6.18;3.20;;;4.90;65.60;;;;;;5014460;28;20037;-86
2024/01/28 00:32:09;;;;;;;6.75;3.30;;;4.90;65.50;;;;;;5014595;28;20022;-86
2024/01/28 00:34:34;;;;;;;4.68;2.90;;;4.80;65.60;;;;;;5014522;28;20021;-87
2024/01/28 00:37:02;;;;;;;9.27;2.97;;;4.90;65.70;;;;;;5014878;28;20430;-86
2024/01/28 00:39:28;;;;;;;5.95;2.90;;;4.90;65.50;;;;;;5024021;28;20089;-84
2024/01/28 00:41:54;;;;;;;6.38;2.90;;;4.90;65.20;;;;;;5035750;28;20024;-79
2024/01/28 00:44:19;;;;;;;6.80;3.58;;;4.90;65.30;;;;;;5034469;28;20030;-86
2024/01/28 00:46:45;;;;;;;5.00;3.15;;;4.80;65.40;;;;;;5018414;28;20097;-85
2024/01/28 00:49:11;;;;;;;4.32;2.53;;;4.90;65.50;;;;;;5015552;28;20033;-85
2024/01/28 00:51:37;;;;;;;4.55;2.78;;;4.80;65.00;;;;;;4997128;28;20054;-86
2024/01/28 00:54:02;;;;;;;7.97;3.00;;;4.80;65.10;;;;;;5014028;28;20032;-86
2024/01/28 00:56:28;;;;;;;4.57;2.42;;;4.80;65.10;;;;;;5014232;28;20033;-84
2024/01/28 00:58:53;;;;;;;8.25;2.70;;;4.80;65.00;;;;;;4996051;28;20034;-85
2024/01/28 01:01:19;;;;;;;4.55;2.55;;;4.80;65.10;;;;;;5014037;28;20028;-86
2024/01/28 01:03:45;;;;;;;8.85;3.53;;;4.70;65.50;;;;;;5013894;28;20466;-82
2024/01/28 01:06:11;;;;;;;6.95;4.18;;;4.60;65.80;;;;;;5013282;28;20052;-85
2024/01/28 01:08:37;;;;;;;10.13;6.05;;;4.60;66.00;;;;;;5013689;28;20081;-86
2024/01/28 01:11:05;;;;;;;11.43;6.50;;;4.60;65.80;;;;;;5013881;28;20022;-86
2024/01/28 01:13:32;;;;;;;10.02;7.07;;;4.50;65.80;;;;;;5014050;28;20037;-88
2024/01/28 01:15:58;;;;;;;13.57;7.53;;;4.30;66.00;;;;;;5013768;28;20018;-86
2024/01/28 01:18:24;;;;;;;11.55;7.43;;;4.20;66.30;;;;;;4995807;28;20348;-86
2024/01/28 01:20:50;;;;;;;14.05;7.53;;;4.00;66.90;;;;;;5013567;28;20026;-85
2024/01/28 01:23:16;;;;;;;14.43;8.07;;;3.90;67.40;;;;;;5013502;28;20022;-85
2024/01/28 01:25:41;;;;;;;13.52;7.55;;;3.80;67.70;;;;;;5013806;28;20077;-86
2024/01/28 01:28:07;;;;;;;15.20;7.53;;;3.80;68.30;;;;;;5017147;28;20108;-86
2024/01/28 01:30:33;;;;;;;14.15;7.88;;;3.60;68.70;;;;;;5017083;28;20506;-85
2024/01/28 01:32:58;;;;;;;12.23;7.53;;;3.50;69.40;;;;;;5017023;28;20442;-86
2024/01/28 01:35:24;;;;;;;12.77;6.60;;;3.50;69.90;;;;;;5017045;28;20564;-82
2024/01/28 01:37:49;;;;;;;11.20;7.18;;;3.40;70.50;;;;;;5017309;28;20356;-84
2024/01/28 01:40:15;;;;;;;17.23;9.73;;;3.30;70.70;;;;;;4999580;28;20026;-85
2024/01/28 01:42:43;;;;;;;15.68;9.68;;;3.40;70.90;;;;;;5017178;28;20084;-85
2024/01/28 01:45:08;;;;;;;12.93;7.25;;;3.30;70.80;;;;;;5016913;28;20029;-85
2024/01/28 01:47:34;;;;;;;12.55;6.85;;;3.30;70.80;;;;;;4999690;28;20478;-86
2024/01/28 01:50:01;;;;;;;9.88;5.53;;;3.20;70.70;;;;;;5016530;28;20034;-86
2024/01/28 01:52:28;;;;;;;10.02;6.03;;;3.20;71.20;;;;;;5016873;28;20045;-87
2024/01/28 01:54:54;;;;;;;11.95;6.70;;;3.20;71.50;;;;;;5016694;28;20037;-86
2024/01/28 01:57:20;;;;;;;13.63;6.40;;;3.20;71.40;;;;;;5016948;28;20032;-85
2024/01/28 01:59:47;;;;;;;13.45;7.75;;;3.20;71.20;;;;;;5016810;28;20395;-87
2024/01/28 02:02:12;;;;;;;10.27;6.68;;;3.20;71.00;;;;;;5016431;28;20033;-86
2024/01/28 02:04:38;;;;;;;14.23;7.88;;;3.10;71.20;;;;;;4999399;28;20391;-87
2024/01/28 02:07:04;;;;;;;13.52;6.13;;;3.10;71.40;;;;;;5019159;28;20044;-86
2024/01/28 02:09:31;;;;;;;8.35;5.63;;;3.10;71.60;;;;;;5016930;28;20033;-87
2024/01/28 02:11:56;;;;;;;12.13;6.03;;;3.10;73.00;;;;;;5023495;28;20029;-87
2024/01/28 02:14:29;;;;;;;10.98;7.05;;;3.00;72.80;;;;;;5017174;28;20112;-87
2024/01/28 02:17:01;;;;;;;8.05;4.30;;;3.00;72.50;;;;;;5016852;28;20022;-87
2024/01/28 02:19:27;;;;;;;9.25;4.43;;;3.00;74.10;;;;;;5016868;28;20072;-85
2024/01/28 02:21:53;;;;;;;6.93;3.90;;;3.00;74.40;;;;;;5016779;28;20466;-87
2024/01/28 02:24:19;;;;;;;7.68;4.25;;;3.10;74.70;;;;;;5016582;28;20449;-87
2024/01/28 02:26:44;;;;;;;10.32;4.13;;;3.20;74.30;;;;;;5016750;28;20018;-85
2024/01/28 02:29:10;;;;;;;8.65;5.05;;;3.30;74.10;;;;;;5016760;28;20042;-86
2024/01/28 02:31:35;;;;;;;9.13;5.22;;;3.20;72.90;;;;;;5016140;28;20057;-84
2024/01/28 02:34:01;;;;;;;11.80;6.32;;;3.10;73.00;;;;;;5016258;28;20475;-87
2024/01/28 02:36:28;;;;;;;9.23;5.82;;;3.10;73.00;;;;;;5015881;28;20037;-85
2024/01/28 02:38:54;;;;;;;12.35;6.93;;;3.10;72.50;;;;;;5016078;28;20022;-85
2024/01/28 02:41:20;;;;;;;13.60;8.20;;;3.00;72.70;;;;;;5016499;28;20045;-86
2024/01/28 02:43:46;;;;;;;24.05;10.98;;;2.90;72.80;;;;;;5016186;28;20463;-85
2024/01/28 02:46:11;;;;;;;10.30;6.10;;;2.80;72.80;;;;;;5015988;28;20026;-86
2024/01/28 02:48:37;;;;;;;11.82;6.38;;;2.80;73.90;;;;;;5015853;28;20038;-84
2024/01/28 02:51:02;;;;;;;11.65;5.18;;;2.70;73.90;;;;;;4998368;28;20050;-85
2024/01/28 02:53:28;;;;;;;10.82;5.60;;;2.80;74.20;;;;;;5016398;28;20026;-83
2024/01/28 02:55:59;;;;;;;11.93;4.63;;;2.90;74.20;;;;;;5016331;28;20050;-86
2024/01/28 02:58:25;;;;;;;8.50;3.50;;;2.80;73.90;;;;;;5016589;28;20541;-85
2024/01/28 03:00:50;;;;;;;4.45;2.63;;;2.90;75.20;;;;;;5016114;28;20045;-86
2024/01/28 03:03:16;;;;;;;4.40;2.90;;;3.00;75.70;;;;;;5015808;28;20499;-86
2024/01/28 03:05:42;;;;;;;3.80;2.20;;;3.10;75.40;;;;;;5015910;28;20045;-86
2024/01/28 03:08:07;;;;;;;4.18;2.08;;;3.30;74.90;;;;;;5015936;28;20333;-84
2024/01/28 03:10:33;;;;;;;4.10;1.92;;;3.40;74.30;;;;;;5016693;28;20034;-86
2024/01/28 03:12:59;;;;;;;3.42;1.95;;;3.50;73.50;;;;;;5016824;28;20022;-83
2024/01/28 03:15:24;;;;;;;2.95;1.80;;;3.70;72.70;;;;;;4998769;28;20025;-84
2024/01/28 03:17:50;;;;;;;2.42;1.67;;;3.70;72.00;;;;;;5016181;28;20026;-86
2024/01/28 03:20:19;;;;;;;3.78;1.90;;;3.70;71.80;;;;;;5015558;28;20026;-87
2024/01/28 03:22:45;;;;;;;3.83;1.85;;;3.80;71.30;;;;;;5015411;28;20413;-84
2024/01/28 03:25:12;;;;;;;3.40;1.40;;;3.80;71.10;;;;;;5015547;28;20112;-85
2024/01/28 03:27:38;;;;;;;3.03;1.50;;;3.80;70.50;;;;;;5015601;28;20060;-84
2024/01/28 03:30:04;;;;;;;3.97;1.83;;;3.90;70.40;;;;;;5015588;28;20065;-85
2024/01/28 03:32:31;;;;;;;7.25;2.10;;;3.90;70.10;;;;;;5000782;28;20118;-85
2024/01/28 03:34:56;;;;;;;3.78;1.95;;;3.90;70.10;;;;;;5025091;28;20044;-80
2024/01/28 03:37:23;;;;;;;4.13;1.75;;;3.90;70.30;;;;;;5037945;28;20053;-80
2024/01/28 03:39:48;;;;;;;3.72;1.50;;;3.90;70.40;;;;;;5035510;28;20032;-86
2024/01/28 03:42:14;;;;;;;2.35;1.50;;;3.90;69.90;;;;;;5019247;28;20443;-82
2024/01/28 03:44:39;;;;;;;3.42;2.05;;;4.00;69.70;;;;;;5016552;28;20124;-83
2024/01/28 03:47:05;;;;;;;2.97;1.67;;;4.00;69.70;;;;;;5015901;28;20545;-86
2024/01/28 03:49:30;;;;;;;1.88;1.52;;;4.00;69.60;;;;;;4997399;28;20038;-86
2024/01/28 03:51:56;;;;;;;3.00;1.60;;;3.90;69.50;;;;;;5015373;28;20077;-87
2024/01/28 03:54:21;;;;;;;4.00;2.40;;;3.90;69.40;;;;;;5015179;28;20036;-86
2024/01/28 03:56:47;;;;;;;3.05;1.98;;;3.90;68.90;;;;;;5014990;28;20097;-83
2024/01/28 03:59:13;;;;;;;2.45;1.85;;;3.90;69.10;;;;;;5015102;28;20030;-85
2024/01/28 04:01:39;;;;;;;3.38;1.92;;;3.80;68.00;;;;;;5001481;28;20097;-84
2024/01/28 04:04:05;;;;;;;2.92;2.08;;;3.90;67.90;;;;;;5016296;28;20116;-85
2024/01/28 04:06:31;;;;;;;1.83;1.40;;;3.90;67.40;;;;;;5014799;28;20071;-86
2024/01/28 04:08:57;;;;;;;2.85;1.70;;;3.80;66.40;;;;;;5014543;28;20165;-86
2024/01/28 04:11:26;;;;;;;3.90;2.35;;;3.80;66.10;;;;;;5014500;28;20029;-86
2024/01/28 04:13:54;;;;;;;8.35;1.77;;;3.70;66.10;;;;;;4997101;28;20057;-85
2024/01/28 04:16:20;;;;;;;3.00;1.80;;;3.60;66.60;;;;;;5014596;28;20053;-86
2024/01/28 04:18:46;;;;;;;4.40;1.85;;;3.70;66.80;;;;;;5014479;28;20028;-86
2024/01/28 04:21:12;;;;;;;5.88;2.67;;;3.70;66.70;;;;;;5014441;28;20030;-86
2024/01/28 04:23:41;;;;;;;4.28;2.00;;;3.70;65.70;;;;;;5014533;28;20410;-86
2024/01/28 04:26:07;;;;;;;5.65;3.42;;;3.60;65.60;;;;;;5014598;28;20026;-86
2024/01/28 04:28:32;;;;;;;5.53;3.38;;;3.40;66.30;;;;;;5014513;28;20045;-86
2024/01/28 04:30:58;;;;;;;5.15;3.38;;;3.20;66.80;;;;;;5014435;28;20383;-85
2024/01/28 04:33:24;;;;;;;7.93;3.65;;;3.00;67.80;;;;;;5014343;28;20026;-87
2024/01/28 04:35:50;;;;;;;5.22;3.30;;;2.90;68.40;;;;;;4996874;28;20030;-84
2024/01/28 04:38:16;;;;;;;4.40;2.67;;;2.90;68.80;;;;;;4996940;28;20164;-85
2024/01/28 04:40:41;;;;;;;7.93;4.50;;;2.80;68.90;;;;;;5014346;28;20478;-87
2024/01/28 04:43:07;;;;;;;10.80;5.03;;;2.80;69.10;;;;;;5014242;28;20022;-86
2024/01/28 04:45:32;;;;;;;9.70;5.20;;;2.70;69.40;;;;;;5014073;28;20372;-84
2024/01/28 04:47:58;;;;;;;10.43;5.47;;;2.70;69.60;;;;;;5014190;28;20055;-84
2024/01/28 04:50:24;;;;;;;9.57;5.45;;;2.70;69.80;;;;;;5013803;28;20054;-85
2024/01/28 04:52:50;;;;;;;7.55;5.07;;;2.60;70.00;;;;;;5014294;28;20520;-83
2024/01/28 04:55:15;;;;;;;6.82;3.78;;;2.50;70.10;;;;;;5014045;28;20072;-85
2024/01/28 04:57:41;;;;;;;9.45;3.60;;;2.40;70.60;;;;;;5014299;28;20026;-85
2024/01/28 05:00:10;;;;;;;7.85;3.83;;;2.30;71.50;;;;;;5015705;28;20034;-85
2024/01/28 05:02:39;;;;;;;6.05;3.40;;;2.30;72.20;;;;;;5018659;28;20014;-85
2024/01/28 05:05:05;;;;;;;6.60;2.95;;;2.30;72.30;;;;;;5018106;28;20025;-85
2024/01/28 05:07:30;;;;;;;6.82;3.47;;;2.20;72.50;;;;;;5000304;28;20025;-85
2024/01/28 05:09:57;;;;;;;4.93;2.65;;;2.20;72.50;;;;;;5018186;28;20044;-84
2024/01/28 05:12:23;;;;;;;3.88;1.65;;;2.20;72.70;;;;;;5000364;28;20018;-85
2024/01/28 05:14:49;;;;;;;3.50;1.73;;;2.20;72.40;;;;;;5017913;28;20390;-86
2024/01/28 05:17:14;;;;;;;5.00;2.00;;;2.30;72.40;;;;;;5017510;28;20022;-86
2024/01/28 05:19:40;;;;;;;4.88;2.20;;;2.30;72.10;;;;;;5017483;28;20018;-86
2024/01/28 05:22:06;;;;;;;3.10;2.15;;;2.40;71.80;;;;;;5017722;28;20018;-84
2024/01/28 05:24:31;;;;;;;3.28;2.30;;;2.50;71.60;;;;;;5017651;28;20105;-85
2024/01/28 05:26:57;;;;;;;4.93;2.67;;;2.50;71.40;;;;;;5017718;28;20109;-84
2024/01/28 05:29:23;;;;;;;7.38;3.47;;;2.50;71.10;;;;;;5017482;28;20483;-85
2024/01/28 05:31:48;;;;;;;6.68;3.35;;;2.50;71.10;;;;;;5019256;28;20030;-84
2024/01/28 05:34:14;;;;;;;7.70;3.78;;;2.50;71.20;;;;;;5027314;28;20025;-81
2024/01/28 05:36:40;;;;;;;9.98;5.65;;;2.50;71.20;;;;;;5017166;28;20014;-83
2024/01/28 05:39:06;;;;;;;5.13;2.20;;;2.40;71.10;;;;;;5016720;28;20367;-84
2024/01/28 05:41:32;;;;;;;4.85;2.55;;;2.40;71.10;;;;;;5016615;28;20049;-83
2024/01/28 05:43:58;;;;;;;5.88;2.10;;;2.40;71.00;;;;;;5016532;28;20424;-82
2024/01/28 05:46:24;;;;;;;3.97;2.13;;;2.40;70.50;;;;;;5016643;28;20481;-80
2024/01/28 05:48:49;;;;;;;5.15;2.67;;;2.30;70.20;;;;;;5016970;28;20463;-84
2024/01/28 05:51:15;;;;;;;3.42;2.35;;;2.30;70.20;;;;;;4998708;28;20526;-83
2024/01/28 05:53:40;;;;;;;4.32;2.67;;;2.30;70.00;;;;;;5016307;28;20045;-84
2024/01/28 05:56:06;;;;;;;5.95;2.92;;;2.10;70.00;;;;;;5016340;28;20088;-83
2024/01/28 05:58:34;;;;;;;6.05;2.40;;;2.00;70.60;;;;;;5020924;28;20017;-83
2024/01/28 06:01:05;;;;;;;8.50;3.30;;;1.90;71.10;;;;;;5030633;28;20024;-83
2024/01/28 06:03:31;;;;;;;3.95;2.28;;;1.70;71.80;;;;;;5035838;28;20033;-80
2024/01/28 06:05:56;;;;;;;4.88;3.30;;;1.70;71.50;;;;;;5036046;28;20057;-83
2024/01/28 06:08:23;;;;;;;7.75;3.78;;;1.70;71.90;;;;;;5036099;28;20047;-85
2024/01/28 06:10:48;;;;;;;4.88;2.72;;;1.70;72.30;;;;;;5036681;28;20045;-85
2024/01/28 06:13:14;;;;;;;4.35;3.10;;;1.70;72.00;;;;;;5035667;28;20496;-85
2024/01/28 06:15:39;;;;;;;6.75;2.83;;;1.70;71.40;;;;;;5036488;28;20049;-85
2024/01/28 06:18:05;;;;;;;5.85;1.92;;;1.80;71.10;;;;;;5036721;28;20029;-85
2024/01/28 06:20:35;;;;;;;4.18;2.53;;;1.80;70.50;;;;;;5036985;28;20026;-85
2024/01/28 06:23:01;;;;;;;6.80;3.25;;;1.90;70.50;;;;;;5038265;28;20053;-83
2024/01/28 06:25:26;;;;;;;8.15;3.80;;;2.00;70.40;;;;;;5051256;28;20017;-83
2024/01/28 06:27:52;;;;;;;6.53;3.60;;;2.00;70.00;;;;;;5055621;28;20025;-84
2024/01/28 06:30:17;;;;;;;3.25;2.13;;;2.10;69.90;;;;;;5049708;28;20059;-81
2024/01/28 06:32:43;;;;;;;2.92;1.65;;;2.20;68.60;;;;;;5055773;28;20021;-83
2024/01/28 06:35:09;;;;;;;3.75;1.85;;;2.20;67.30;;;;;;5027348;28;20041;-85
2024/01/28 06:37:36;;;;;;;5.90;2.97;;;2.20;66.70;;;;;;5038400;28;20079;-78
2024/01/28 06:40:01;;;;;;;5.40;2.92;;;2.30;66.90;;;;;;5036386;28;20032;-84
2024/01/28 06:42:28;;;;;;;4.18;2.28;;;2.20;66.80;;;;;;5018615;28;20030;-85
2024/01/28 06:44:53;;;;;;;3.63;2.50;;;2.20;66.20;;;;;;5035974;28;20017;-86
2024/01/28 06:47:19;;;;;;;6.32;2.33;;;2.20;65.50;;;;;;5035623;28;20095;-83
2024/01/28 06:49:45;;;;;;;3.92;2.03;;;2.20;65.20;;;;;;5035682;28;20041;-84
2024/01/28 06:52:11;;;;;;;6.35;2.58;;;2.30;64.80;;;;;;5035399;28;20045;-84
2024/01/28 06:54:40;;;;;;;7.38;3.30;;;2.40;63.20;;;;;;5035680;28;20037;-84
2024/01/28 06:57:06;;;;;;;9.48;4.20;;;2.40;65.10;;;;;;5035565;28;20014;-85
2024/01/28 06:59:31;;;;;;;6.43;3.50;;;2.20;67.10;;;;;;5035362;28;20030;-85
2024/01/28 07:01:57;;;;;;;9.68;5.13;;;2.10;68.20;;;;;;5035427;28;20029;-86
2024/01/28 07:04:22;;;;;;;7.82;4.30;;;1.90;69.40;;;;;;5035641;28;20104;-84
2024/01/28 07:06:48;;;;;;;5.40;3.17;;;1.90;70.20;;;;;;5017742;28;20466;-84
2024/01/28 07:09:15;;;;;;;7.72;3.58;;;1.80;70.10;;;;;;5035430;28;20025;-86
2024/01/28 07:11:41;;;;;;;8.13;3.15;;;1.80;70.40;;;;;;5036644;28;20025;-86
2024/01/28 07:14:06;;;;;;;7.95;3.22;;;1.80;70.10;;;;;;5035046;28;20390;-86
2024/01/28 07:16:32;;;;;;;6.50;3.58;;;1.90;69.50;;;;;;5035392;28;20403;-83
2024/01/28 07:18:57;;;;;;;5.72;3.22;;;2.00;68.80;;;;;;5035019;28;20093;-84
2024/01/28 07:21:23;;;;;;;7.10;3.10;;;2.10;67.80;;;;;;5035041;28;20036;-84
2024/01/28 07:23:49;;;;;;;8.00;4.28;;;2.20;67.80;;;;;;5035101;28;20057;-85
2024/01/28 07:26:14;;;;;;;9.00;4.57;;;2.20;67.40;;;;;;5037321;28;20038;-85
2024/01/28 07:28:40;;;;;;;7.53;3.72;;;2.30;66.80;;;;;;5039417;28;20482;-85
2024/01/28 07:31:06;;;;;;;7.53;2.65;;;2.30;66.10;;;;;;5037225;28;20105;-85
2024/01/28 07:33:33;;;;;;;2.90;1.60;;;2.50;64.70;;;;;;5037011;28;20021;-86
2024/01/28 07:35:58;;;;;;;3.40;1.92;;;2.70;62.90;;;;;;5035893;28;20026;-84
2024/01/28 07:38:24;;;;;;;5.07;2.97;;;2.80;61.80;;;;;;5017984;28;20037;-85
2024/01/28 07:40:49;;;;;;;7.25;3.15;;;2.80;61.20;;;;;;5017912;28;20120;-86
2024/01/28 07:43:15;;;;;;;7.07;3.10;;;2.90;61.10;;;;;;5035505;28;20026;-86
2024/01/28 07:45:42;;;;;;;5.28;3.42;;;2.90;61.00;;;;;;5022253;28;20056;-78
2024/01/28 07:48:08;;;;;;;6.20;2.95;;;2.90;61.70;;;;;;5039939;28;20045;-83
2024/01/28 07:50:33;;;;;;;7.80;3.35;;;3.00;60.80;;;;;;5043374;28;20053;-83
2024/01/28 07:52:59;;;;;;;5.18;3.35;;;3.40;75.50;;;;;;5016235;28;20025;-83
2024/01/28 07:55:25;;;;;;;5.50;3.20;;;3.50;71.60;;;;;;5016217;28;20037;-82
2024/01/28 07:57:50;;;;;;;5.43;3.75;;;3.70;67.70;;;;;;5015898;28;20083;-79
2024/01/28 08:00:16;;;;;;;6.50;3.90;;;3.90;64.90;;;;;;5033744;28;20022;-78
2024/01/28 08:02:42;;;;;;;5.88;3.53;;;4.10;61.90;;;;;;5033583;28;20022;-83
2024/01/28 08:05:08;;;;;;;8.90;4.22;;;4.30;61.10;;;;;;5033852;28;20037;-80
2024/01/28 08:07:34;;;;;;;9.32;4.80;;;4.40;58.80;;;;;;5016291;28;20031;-85
2024/01/28 08:09:59;;;;;;;8.90;5.68;;;4.60;58.00;;;;;;5016094;28;20033;-85
2024/01/28 08:12:25;;;;;;;9.32;5.60;;;4.80;57.90;;;;;;5034526;28;20025;-85
2024/01/28 08:14:50;;;;;;;10.75;7.10;;;5.00;57.00;;;;;;5016489;28;20025;-85
2024/01/28 08:17:16;;;;;;;8.45;4.97;;;5.20;56.50;;;;;;5034296;28;20017;-84
2024/01/28 08:19:42;;;;;;;10.25;5.72;;;5.30;54.00;;;;;;5018474;28;20342;-85
2024/01/28 08:22:08;;;;;;;12.52;7.57;;;5.30;53.90;;;;;;5018767;28;20030;-84
2024/01/28 08:24:33;;;;;;;11.27;7.53;;;5.30;53.30;;;;;;5019091;28;20032;-85
2024/01/28 08:26:59;;;;;;;9.88;6.65;;;5.40;54.10;;;;;;5018900;28;20022;-84
2024/01/28 08:29:25;;;;;;;10.45;5.72;;;5.70;54.50;;;;;;5019086;28;20036;-83
2024/01/28 08:31:51;;;;;;;9.07;5.32;;;5.90;53.30;;;;;;5037491;28;20025;-84
2024/01/28 08:34:17;;;;;;;7.05;4.80;;;6.00;51.90;;;;;;5016742;28;20018;-85
2024/01/28 08:36:42;;;;;;;4.53;3.30;;;6.20;52.60;;;;;;5015999;28;20025;-84
2024/01/28 08:39:09;;;;;;;6.05;3.95;;;6.40;52.20;;;;;;5034152;28;20168;-85
2024/01/28 08:41:36;;;;;;;5.35;3.38;;;6.50;50.70;;;;;;5019309;28;20033;-81
2024/01/28 08:44:05;;;;;;;5.68;3.40;;;6.90;50.90;;;;;;5036190;28;20017;-87
2024/01/28 08:46:31;;;;;;;6.22;3.90;;;6.90;48.00;;;;;;5035260;28;20025;-87
2024/01/28 08:48:57;;;;;;;6.18;3.80;;;6.80;48.90;;;;;;5017254;28;20037;-84
2024/01/28 08:51:22;;;;;;;6.32;4.40;;;6.80;49.50;;;;;;5033782;28;20111;-85
2024/01/28 08:53:48;;;;;;;5.75;4.00;;;6.50;50.00;;;;;;5016057;28;20036;-84
2024/01/28 08:56:13;;;;;;;5.13;3.03;;;6.40;50.30;;;;;;5033821;28;20048;-84
2024/01/28 08:58:39;;;;;;;6.82;4.10;;;6.30;48.60;;;;;;5034884;28;20026;-87
2024/01/28 09:01:05;;;;;;;5.25;3.60;;;6.40;49.50;;;;;;5036321;28;20025;-87
2024/01/28 09:03:31;;;;;;;3.28;2.53;;;6.30;49.50;;;;;;5034604;28;20029;-86
2024/01/28 09:05:57;;;;;;;3.92;2.70;;;6.30;48.60;;;;;;5049482;28;20030;-85
2024/01/28 09:08:22;;;;;;;6.35;4.35;;;6.30;49.00;;;;;;5049919;28;20028;-89
2024/01/28 09:10:48;;;;;;;5.80;3.13;;;6.50;48.70;;;;;;5039391;28;20466;-87
2024/01/28 09:13:13;;;;;;;12.77;6.88;;;6.60;48.30;;;;;;5035945;28;20363;-88
2024/01/28 09:15:39;;;;;;;8.65;5.20;;;6.50;51.30;;;;;;5004533;28;20034;-86
2024/01/28 09:18:05;;;;;;;7.05;4.13;;;6.50;51.20;;;;;;5018146;28;20411;-88
2024/01/28 09:20:30;;;;;;;7.60;4.00;;;6.60;51.50;;;;;;5017815;28;20029;-82
2024/01/28 09:22:56;;;;;;;5.15;3.15;;;6.80;50.90;;;;;;5015118;28;20034;-86
2024/01/28 09:25:21;;;;;;;10.02;4.38;;;7.00;50.40;;;;;;5013833;28;20163;-85
2024/01/28 09:27:48;;;;;;;11.27;3.92;;;7.00;51.40;;;;;;5014036;28;20053;-86
2024/01/28 09:30:14;;;;;;;9.13;4.45;;;7.20;50.50;;;;;;5017885;28;20034;-87
2024/01/28 09:32:40;;;;;;;9.20;4.40;;;7.40;50.30;;;;;;5029506;28;20074;-82
2024/01/28 09:35:06;;;;;;;7.90;4.00;;;7.40;50.80;;;;;;5036600;28;20007;-75
2024/01/28 09:37:31;;;;;;;7.18;3.20;;;7.70;49.90;;;;;;5021462;28;20133;-85
2024/01/28 09:39:57;;;;;;;5.82;2.90;;;8.10;48.70;;;;;;5014248;28;20116;-87
2024/01/28 09:42:25;;;;;;;2.78;2.20;;;8.40;46.40;;;;;;5014493;28;20081;-85
2024/01/28 09:44:51;;;;;;;3.38;2.28;;;8.80;44.30;;;;;;5013700;28;20030;-86
2024/01/28 09:47:20;;;;;;;3.35;2.13;;;9.10;42.00;;;;;;5014965;28;20030;-85
2024/01/28 09:49:50;;;;;;;2.67;2.08;;;9.50;41.80;;;;;;5017374;28;20034;-86
2024/01/28 09:52:16;;;;;;;3.50;2.25;;;9.80;41.90;;;;;;5017675;28;20538;-86
2024/01/28 09:54:46;;;;;;;5.57;3.00;;;10.10;41.80;;;;;;5016953;28;20022;-81
2024/01/28 09:57:12;;;;;;;6.88;3.17;;;10.30;40.60;;;;;;5017581;28;20092;-84
2024/01/28 09:59:38;;;;;;;5.53;3.03;;;10.30;39.70;;;;;;5017048;28;20363;-86
2024/01/28 10:02:05;;;;;;;4.85;3.00;;;10.40;40.90;;;;;;5017825;28;20033;-86
2024/01/28 10:04:32;;;;;;;4.13;2.83;;;10.60;40.30;;;;;;5018831;28;20025;-86
2024/01/28 10:06:59;;;;;;;7.63;3.47;;;10.80;40.90;;;;;;5024247;28;20026;-83
2024/01/28 10:09:29;;;;;;;6.57;3.28;;;10.90;41.40;;;;;;5024702;28;20033;-83
2024/01/28 10:11:58;;;;;;;4.65;3.00;;;11.00;41.90;;;;;;5024445;28;20024;-84
2024/01/28 10:14:23;;;;;;;5.43;2.50;;;10.70;41.70;;;;;;5025021;28;20025;-84
2024/01/28 10:16:49;;;;;;;4.90;2.85;;;10.80;42.30;;;;;;5025327;28;20425;-87
2024/01/28 10:19:15;;;;;;;4.70;3.00;;;11.00;42.70;;;;;;5024738;28;20092;-86
2024/01/28 10:21:43;;;;;;;5.00;2.80;;;11.30;41.70;;;;;;5023576;28;20025;-86
2024/01/28 10:24:10;;;;;;;4.28;3.13;;;11.50;40.80;;;;;;5034652;28;20030;-83
2024/01/28 10:26:36;;;;;;;4.07;2.92;;;11.90;40.40;;;;;;5036382;28;20523;-86
2024/01/28 10:29:02;;;;;;;5.82;3.08;;;12.00;39.20;;;;;;5027835;28;20030;-86
2024/01/28 10:31:27;;;;;;;3.63;2.45;;;12.30;39.00;;;;;;5024930;28;20037;-84
2024/01/28 10:33:53;;;;;;;3.83;2.47;;;12.50;39.30;;;;;;5024298;28;20077;-84
2024/01/28 10:36:18;;;;;;;3.40;2.40;;;12.70;37.60;;;;;;5026993;28;20064;-86
2024/01/28 10:38:46;;;;;;;3.83;2.63;;;12.90;37.20;;;;;;5030023;28;20022;-88
2024/01/28 10:41:16;;;;;;;4.43;2.80;;;12.90;37.00;;;;;;5028595;28;20074;-86
2024/01/28 10:43:50;;;;;;;3.17;2.35;;;13.10;37.90;;;;;;5026687;28;20025;-88
2024/01/28 10:46:19;;;;;;;4.20;2.63;;;13.20;36.90;;;;;;5026825;28;20471;-85
2024/01/28 10:48:50;;;;;;;3.47;2.70;;;13.40;35.90;;;;;;5026819;28;20113;-85
2024/01/28 10:51:17;;;;;;;3.78;3.20;;;13.70;35.40;;;;;;5026809;28;20061;-86
2024/01/28 10:53:45;;;;;;;5.45;3.28;;;14.00;34.10;;;;;;5020739;28;20022;-84
2024/01/28 10:56:12;;;;;;;5.63;3.63;;;14.30;34.10;;;;;;5022474;28;20022;-88
2024/01/28 10:58:38;;;;;;;4.63;3.47;;;14.40;32.50;;;;;;5016659;28;20065;-87
2024/01/28 11:01:06;;;;;;;6.18;4.13;;;14.60;31.60;;;;;;5016900;28;20485;-88
2024/01/28 11:03:33;;;;;;;3.70;3.08;;;14.70;32.10;;;;;;5016496;28;20411;-86
2024/01/28 11:05:59;;;;;;;4.07;3.20;;;14.80;31.80;;;;;;5015828;28;20030;-88
2024/01/28 11:08:26;;;;;;;4.25;3.15;;;15.00;31.80;;;;;;5022186;28;20137;-89
2024/01/28 11:10:53;;;;;;;4.28;2.95;;;15.30;32.60;;;;;;5023431;28;20032;-88
2024/01/28 11:13:18;;;;;;;4.85;3.50;;;15.30;31.30;;;;;;5023752;28;20078;-88
2024/01/28 11:15:46;;;;;;;5.75;3.97;;;15.60;31.40;;;;;;5018501;28;20030;-86
2024/01/28 11:18:11;;;;;;;6.90;3.90;;;15.90;31.00;;;;;;5017889;28;20324;-85
2024/01/28 11:20:37;;;;;;;5.78;3.42;;;16.10;30.60;;;;;;5018294;28;20072;-88
2024/01/28 11:23:04;;;;;;;3.75;2.90;;;16.40;30.80;;;;;;5017469;28;20058;-88
2024/01/28 11:25:30;;;;;;;7.22;3.42;;;16.40;29.90;;;;;;5019689;28;20049;-88
2024/01/28 11:28:03;;;;;;;6.25;4.07;;;15.90;31.20;;;;;;5021532;28;20564;-89
2024/01/28 11:30:29;;;;;;;5.25;3.70;;;16.10;30.40;;;;;;5018507;28;20026;-87
2024/01/28 11:33:07;;;;;;;5.38;3.90;;;16.40;29.40;;;;;;5016935;28;20542;-86
2024/01/28 11:35:33;;;;;;;5.55;3.70;;;16.50;28.50;;;;;;5016686;28;20017;-87
2024/01/28 11:38:04;;;;;;;5.50;3.75;;;16.60;28.90;;;;;;5017074;28;20094;-83
2024/01/28 11:40:37;;;;;;;5.07;3.60;;;16.80;29.90;;;;;;5019411;28;20026;-87
2024/01/28 11:43:08;;;;;;;5.40;4.15;;;17.10;29.70;;;;;;5036386;28;20010;-82
2024/01/28 11:45:35;;;;;;;4.75;3.75;;;17.30;29.70;;;;;;5036250;28;20066;-88
2024/01/28 11:48:09;;;;;;;4.90;3.85;;;17.30;29.50;;;;;;5036056;22;20073;-89
2024/01/28 11:50:35;;;;;;;6.00;3.72;;;17.50;30.10;;;;;;5035200;28;20092;-86
2024/01/28 11:53:01;;;;;;;4.40;3.13;;;17.80;29.10;;;;;;5034816;28;20045;-86
2024/01/28 11:55:26;;;;;;;5.78;3.58;;;18.00;28.30;;;;;;5034612;28;20064;-87
2024/01/28 11:57:52;;;;;;;5.38;3.72;;;18.20;28.60;;;;;;5034975;28;20022;-88
2024/01/28 12:00:18;;;;;;;6.68;3.35;;;18.40;28.40;;;;;;5035294;28;20438;-87
2024/01/28 12:02:44;;;;;;;4.53;3.10;;;18.60;28.30;;;;;;5038207;28;20029;-86
2024/01/28 12:05:10;;;;;;;4.07;3.00;;;18.90;26.80;;;;;;5048448;28;20446;-87
2024/01/28 12:07:37;;;;;;;4.00;3.05;;;19.20;26.20;;;;;;5034840;28;20029;-84
2024/01/28 12:10:06;;;;;;;4.13;3.40;;;19.00;26.00;;;;;;5034089;28;20029;-87
2024/01/28 12:12:34;;;;;;;3.83;3.10;;;18.80;25.90;;;;;;5034324;28;20017;-84
2024/01/28 12:15:02;;;;;;;5.95;4.10;;;19.10;27.30;;;;;;5034503;28;20028;-86
2024/01/28 12:17:27;;;;;;;8.60;4.25;;;19.50;26.10;;;;;;5034895;28;20036;-86
2024/01/28 12:19:53;;;;;;;4.93;3.63;;;19.80;25.00;;;;;;5035010;28;20029;-88
2024/01/28 12:22:19;;;;;;;5.22;3.47;;;20.10;24.30;;;;;;5034962;28;20052;-87
2024/01/28 12:24:48;;;;;;;4.72;3.30;;;20.20;23.00;;;;;;5034988;28;20029;-87
2024/01/28 12:27:14;;;;;;;3.67;2.95;;;20.30;22.50;;;;;;5034678;28;20083;-89
2024/01/28 12:29:41;;;;;;;5.63;2.80;;;20.60;21.90;;;;;;5034396;28;20080;-89
2024/01/28 12:32:08;;;;;;;4.63;3.65;;;20.90;21.40;;;;;;5035310;28;20033;-88
2024/01/28 12:34:35;;;;;;;6.72;3.83;;;20.90;22.60;;;;;;5035215;28;20537;-88
2024/01/28 12:37:01;;;;;;;4.10;3.30;;;21.00;20.40;;;;;;5034466;28;20477;-88
2024/01/28 12:39:26;;;;;;;4.80;3.40;;;21.40;20.00;;;;;;5034419;28;20026;-88
2024/01/28 12:41:52;;;;;;;4.63;3.28;;;21.80;19.60;;;;;;5034486;28;20449;-88
2024/01/28 12:44:17;;;;;;;5.07;3.63;;;22.70;19.20;;;;;;5034393;28;20104;-88
2024/01/28 12:46:43;;;;;;;7.35;3.47;;;23.60;18.00;;;;;;5033068;28;20033;-87